Time;durP1;ratioP1;P1;durP2;ratioP2;P2;SDS_P1;SDS_P2;PMS_P1;PMS_P2;Temp;Humidity;BMP_temperature;BMP_pressure;BME280_temperature;BME280_humidity;BME280_pressure;Samples;Min_cycle;Max_cycle;Signal;HPM_P1;HPM_P2
2023/04/15 00:01:52;;;;;;;9.90;6.60;;;5.00;99.90;;;;;;5056730;28;20498;-61
2023/04/15 00:04:19;;;;;;;8.57;6.53;;;5.00;99.90;;;;;;5057442;28;21017;-61
2023/04/15 00:06:53;;;;;;;10.73;7.57;;;5.00;99.90;;;;;;5057399;28;20462;-61
2023/04/15 00:09:20;;;;;;;9.23;6.83;;;5.00;99.90;;;;;;5057360;28;20765;-60
2023/04/15 00:11:47;;;;;;;9.63;7.47;;;4.80;99.90;;;;;;5056904;28;20464;-61
2023/04/15 00:14:15;;;;;;;8.50;6.27;;;4.70;1.00;;;;;;5056995;28;20500;-61
2023/04/15 00:16:42;;;;;;;7.67;6.50;;;4.70;1.00;;;;;;5057317;28;20966;-61
2023/04/15 00:19:10;;;;;;;8.87;7.97;;;4.70;1.00;;;;;;5057165;28;20761;-61
2023/04/15 00:21:37;;;;;;;9.13;6.70;;;4.70;1.00;;;;;;5056564;28;20588;-61
2023/04/15 00:24:06;;;;;;;15.37;8.13;;;4.60;1.00;;;;;;5056799;28;20772;-61
2023/04/15 00:26:34;;;;;;;9.10;7.20;;;4.50;1.00;;;;;;5056710;28;20509;-61
2023/04/15 00:29:01;;;;;;;9.30;8.43;;;4.50;1.00;;;;;;5056986;28;20562;-61
2023/04/15 00:31:28;;;;;;;10.40;7.20;;;4.50;1.00;;;;;;5056638;28;20486;-61
2023/04/15 00:33:55;;;;;;;9.10;6.97;;;4.50;1.00;;;;;;5056903;28;20468;-61
2023/04/15 00:36:23;;;;;;;9.97;7.50;;;4.50;1.00;;;;;;5056597;28;20462;-61
2023/04/15 00:38:50;;;;;;;10.20;7.30;;;4.40;1.00;;;;;;5056829;28;20938;-61
2023/04/15 00:41:19;;;;;;;11.03;7.37;;;4.50;1.00;;;;;;5056564;28;20487;-61
2023/04/15 00:43:47;;;;;;;11.70;7.90;;;4.30;1.00;;;;;;5056336;28;20835;-61
2023/04/15 00:46:17;;;;;;;10.17;7.10;;;4.30;1.00;;;;;;5056944;28;20557;-61
2023/04/15 00:48:45;;;;;;;9.77;7.60;;;4.40;1.00;;;;;;5057184;28;20775;-61
2023/04/15 00:51:12;;;;;;;11.13;8.33;;;4.40;1.00;;;;;;5057166;28;20473;-61
2023/04/15 00:53:39;;;;;;;10.07;7.53;;;4.30;1.00;;;;;;5057241;28;22067;-62
2023/04/15 00:56:07;;;;;;;10.20;7.60;;;4.30;1.00;;;;;;5056083;28;20469;-61
2023/04/15 00:58:36;;;;;;;11.13;7.90;;;4.20;1.00;;;;;;5056550;28;20541;-61
2023/04/15 01:01:03;;;;;;;14.50;7.07;;;4.20;1.00;;;;;;5056591;28;20486;-61
2023/04/15 01:03:31;;;;;;;10.60;7.20;;;4.10;1.00;;;;;;5056799;28;20462;-61
2023/04/15 01:05:58;;;;;;;14.20;7.80;;;4.20;1.00;;;;;;5056278;28;20560;-61
2023/04/15 01:08:27;;;;;;;10.73;7.13;;;4.20;1.00;;;;;;5056398;28;20462;-61
2023/04/15 01:10:56;;;;;;;10.33;7.60;;;4.20;1.00;;;;;;5056815;28;20464;-61
2023/04/15 01:13:24;;;;;;;11.53;6.80;;;4.20;1.00;;;;;;5056768;28;20468;-62
2023/04/15 01:15:53;;;;;;;10.67;7.23;;;4.20;1.00;;;;;;5056360;28;20472;-61
2023/04/15 01:18:21;;;;;;;10.47;7.33;;;4.10;1.00;;;;;;5056787;28;20565;-61
2023/04/15 01:20:48;;;;;;;7.50;6.70;;;3.90;1.00;;;;;;5056556;28;20462;-61
2023/04/15 01:23:16;;;;;;;11.97;8.37;;;3.90;1.00;;;;;;5056461;28;20472;-61
2023/04/15 01:25:46;;;;;;;11.10;7.80;;;4.00;1.00;;;;;;5056482;28;20512;-61
2023/04/15 01:28:13;;;;;;;8.73;6.80;;;3.90;1.00;;;;;;5056196;28;20506;-61
2023/04/15 01:30:40;;;;;;;8.90;7.50;;;3.90;1.00;;;;;;5056444;28;20489;-61
2023/04/15 01:33:08;;;;;;;12.53;8.07;;;3.90;1.00;;;;;;5056512;28;20465;-62
2023/04/15 01:35:35;;;;;;;10.00;7.20;;;3.90;1.00;;;;;;5057157;28;20458;-62
2023/04/15 01:38:06;;;;;;;9.60;7.40;;;3.80;1.00;;;;;;5059978;28;20790;-61
2023/04/15 01:40:33;;;;;;;10.33;7.07;;;3.80;1.00;;;;;;5060168;28;20878;-61
2023/04/15 01:43:02;;;;;;;12.93;8.17;;;3.80;1.00;;;;;;5059977;28;20493;-61
2023/04/15 01:45:30;;;;;;;9.37;7.97;;;3.80;1.00;;;;;;5060008;28;20473;-61
2023/04/15 01:47:57;;;;;;;11.00;8.00;;;3.80;1.00;;;;;;5059714;28;20469;-61
2023/04/15 01:50:24;;;;;;;11.07;6.60;;;3.80;1.00;;;;;;5059790;28;20973;-62
2023/04/15 01:52:52;;;;;;;10.43;7.27;;;3.70;1.00;;;;;;5059953;28;20463;-61
2023/04/15 01:55:19;;;;;;;9.03;7.30;;;3.80;1.00;;;;;;5060038;28;20489;-61
2023/04/15 01:57:46;;;;;;;10.70;7.20;;;3.70;1.00;;;;;;5058452;28;20565;-59
2023/04/15 02:00:16;;;;;;;8.80;7.10;;;3.70;1.00;;;;;;5059443;28;20549;-62
2023/04/15 02:02:43;;;;;;;9.10;6.90;;;3.60;1.00;;;;;;5059737;28;20497;-62
2023/04/15 02:05:10;;;;;;;11.20;7.57;;;3.60;1.00;;;;;;5059614;28;20758;-61
2023/04/15 02:07:37;;;;;;;12.27;8.37;;;3.50;1.00;;;;;;5059647;28;20469;-61
2023/04/15 02:10:05;;;;;;;9.80;8.20;;;3.50;1.00;;;;;;5059589;28;20473;-61
2023/04/15 02:12:32;;;;;;;11.50;8.40;;;3.50;1.00;;;;;;5059270;28;20887;-61
2023/04/15 02:14:59;;;;;;;15.20;9.27;;;3.50;1.00;;;;;;5059584;28;20499;-61
2023/04/15 02:17:28;;;;;;;16.00;8.60;;;3.50;1.00;;;;;;5059820;28;20469;-61
2023/04/15 02:19:56;;;;;;;12.70;9.27;;;3.50;1.00;;;;;;5059270;28;20468;-61
2023/04/15 02:22:23;;;;;;;12.50;9.40;;;3.40;1.00;;;;;;5059432;28;20996;-61
2023/04/15 02:24:50;;;;;;;14.50;10.80;;;3.40;1.00;;;;;;5058959;28;20557;-61
2023/04/15 02:27:18;;;;;;;15.00;10.30;;;3.40;1.00;;;;;;5059495;28;20455;-62
2023/04/15 02:29:45;;;;;;;12.40;10.77;;;3.30;1.00;;;;;;5058774;28;20472;-62
2023/04/15 02:32:13;;;;;;;13.60;11.93;;;3.20;1.00;;;;;;5058451;28;20464;-64
2023/04/15 02:34:41;;;;;;;17.23;11.33;;;3.30;1.00;;;;;;5058893;28;20540;-64
2023/04/15 02:37:09;;;;;;;14.10;11.60;;;3.20;1.00;;;;;;5059182;28;20856;-62
2023/04/15 02:39:36;;;;;;;16.13;10.73;;;3.30;1.00;;;;;;5059181;28;20488;-61
2023/04/15 02:42:04;;;;;;;15.77;11.67;;;3.30;1.00;;;;;;5058808;28;20490;-62
2023/04/15 02:44:33;;;;;;;15.10;11.87;;;3.30;1.00;;;;;;5058017;28;20513;-61
2023/04/15 02:47:00;;;;;;;13.33;11.90;;;3.30;1.00;;;;;;5057944;28;20466;-61
2023/04/15 02:49:28;;;;;;;14.47;12.07;;;3.30;1.00;;;;;;5058060;28;20466;-62
2023/04/15 02:51:58;;;;;;;16.80;11.40;;;3.30;1.00;;;;;;5058614;28;20898;-62
2023/04/15 02:54:27;;;;;;;13.50;10.87;;;3.20;1.00;;;;;;5058566;28;20857;-62
2023/04/15 02:56:55;;;;;;;16.77;10.20;;;3.30;1.00;;;;;;5058734;28;20465;-62
2023/04/15 02:59:22;;;;;;;13.90;10.90;;;3.30;1.00;;;;;;5058970;28;20549;-62
2023/04/15 03:01:50;;;;;;;12.57;10.93;;;3.30;1.00;;;;;;5058301;28;20762;-61
2023/04/15 03:04:17;;;;;;;15.30;12.40;;;3.30;1.00;;;;;;5058623;28;20944;-62
2023/04/15 03:06:45;;;;;;;15.30;12.60;;;3.20;1.00;;;;;;5058375;28;20528;-62
2023/04/15 03:09:13;;;;;;;14.57;12.40;;;3.10;1.00;;;;;;5058566;28;20466;-62
2023/04/15 03:11:40;;;;;;;15.80;12.20;;;3.10;1.00;;;;;;5058478;28;20557;-62
2023/04/15 03:14:08;;;;;;;15.50;12.70;;;3.10;1.00;;;;;;5058100;28;20937;-62
2023/04/15 03:16:35;;;;;;;11.93;10.60;;;3.10;1.00;;;;;;5058471;28;20466;-62
2023/04/15 03:19:02;;;;;;;16.30;11.80;;;3.10;1.00;;;;;;5058144;28;20462;-62
2023/04/15 03:21:29;;;;;;;17.57;13.00;;;3.10;1.00;;;;;;5058469;28;20462;-62
2023/04/15 03:23:56;;;;;;;18.00;14.57;;;3.10;1.00;;;;;;5057969;28;20528;-62
2023/04/15 03:26:29;;;;;;;14.20;12.80;;;3.00;1.00;;;;;;5057893;28;20445;-62
2023/04/15 03:28:57;;;;;;;17.57;15.10;;;3.00;1.00;;;;;;5058442;28;20776;-62
2023/04/15 03:31:25;;;;;;;18.00;16.00;;;3.00;1.00;;;;;;5057274;28;20523;-62
2023/04/15 03:33:52;;;;;;;17.10;15.17;;;3.00;1.00;;;;;;5057378;28;20462;-62
2023/04/15 03:36:19;;;;;;;19.87;16.67;;;3.00;1.00;;;;;;5057980;28;20484;-62
2023/04/15 03:38:46;;;;;;;18.73;16.50;;;2.90;1.00;;;;;;5057967;28;20458;-62
2023/04/15 03:41:14;;;;;;;22.87;19.30;;;2.80;1.00;;;;;;5057872;28;20470;-62
2023/04/15 03:43:42;;;;;;;24.40;19.17;;;2.80;1.00;;;;;;5057840;28;20547;-62
2023/04/15 03:46:10;;;;;;;20.80;18.70;;;2.80;1.00;;;;;;5057882;28;20473;-62
2023/04/15 03:48:37;;;;;;;22.07;19.63;;;2.90;1.00;;;;;;5057628;28;20774;-62
2023/04/15 03:51:04;;;;;;;19.23;17.23;;;2.90;1.00;;;;;;5057894;28;20470;-62
2023/04/15 03:53:31;;;;;;;21.10;18.30;;;2.90;1.00;;;;;;5057841;28;20510;-62
2023/04/15 03:55:58;;;;;;;22.53;18.50;;;2.80;1.00;;;;;;5057080;28;20465;-62
2023/04/15 03:58:26;;;;;;;25.27;19.40;;;2.70;1.00;;;;;;5057033;28;20433;-62
2023/04/15 04:00:54;;;;;;;21.83;18.13;;;2.80;1.00;;;;;;5056815;28;20466;-62
2023/04/15 04:03:21;;;;;;;18.83;16.93;;;2.80;1.00;;;;;;5057237;28;20490;-62
2023/04/15 04:05:49;;;;;;;21.40;17.73;;;2.70;1.00;;;;;;5057605;28;20849;-64
2023/04/15 04:08:18;;;;;;;20.57;18.43;;;2.70;1.00;;;;;;5057223;28;20466;-62
2023/04/15 04:10:45;;;;;;;23.80;18.80;;;2.70;1.00;;;;;;5057371;28;20466;-62
2023/04/15 04:13:12;;;;;;;20.20;17.27;;;2.70;1.00;;;;;;5057421;28;20557;-62
2023/04/15 04:15:39;;;;;;;19.80;17.40;;;2.60;1.00;;;;;;5057783;28;20476;-62
2023/04/15 04:18:08;;;;;;;20.03;14.20;;;2.70;1.00;;;;;;5056827;28;20486;-62
2023/04/15 04:20:35;;;;;;;13.40;12.00;;;2.70;1.00;;;;;;5057122;28;20966;-62
2023/04/15 04:23:02;;;;;;;16.67;11.13;;;2.60;1.00;;;;;;5057378;28;20489;-62
2023/04/15 04:25:29;;;;;;;14.30;10.07;;;2.60;1.00;;;;;;5057225;28;20757;-62
2023/04/15 04:27:57;;;;;;;14.80;12.53;;;2.60;1.00;;;;;;5056945;28;20480;-61
2023/04/15 04:30:24;;;;;;;13.00;11.60;;;2.60;1.00;;;;;;5056764;28;20964;-62
2023/04/15 04:32:51;;;;;;;14.17;12.50;;;2.60;1.00;;;;;;5057508;28;20470;-62
2023/04/15 04:35:20;;;;;;;14.70;11.63;;;2.60;1.00;;;;;;5057458;28;20507;-62
2023/04/15 04:37:47;;;;;;;14.50;11.53;;;2.50;1.00;;;;;;5056987;28;20863;-62
2023/04/15 04:40:15;;;;;;;16.70;11.97;;;2.60;1.00;;;;;;5056745;28;20808;-62
2023/04/15 04:42:42;;;;;;;16.47;10.97;;;2.60;1.00;;;;;;5057046;28;20589;-62
2023/04/15 04:45:10;;;;;;;14.40;12.40;;;2.60;1.00;;;;;;5056267;28;20494;-62
2023/04/15 04:47:37;;;;;;;17.50;12.73;;;2.50;1.00;;;;;;5056884;28;20517;-62
2023/04/15 04:50:06;;;;;;;20.20;15.13;;;2.60;1.00;;;;;;5056545;28;20477;-62
2023/04/15 04:52:35;;;;;;;20.67;16.87;;;2.50;1.00;;;;;;5056867;28;20458;-62
2023/04/15 04:55:02;;;;;;;20.57;17.10;;;2.50;1.00;;;;;;5057336;28;20466;-62
2023/04/15 04:57:29;;;;;;;18.00;13.50;;;2.50;1.00;;;;;;5056885;28;20463;-62
2023/04/15 04:59:56;;;;;;;18.40;14.13;;;2.50;1.00;;;;;;5056600;28;20552;-62
2023/04/15 05:02:25;;;;;;;21.70;13.67;;;2.60;1.00;;;;;;5056690;28;20497;-62
2023/04/15 05:04:54;;;;;;;15.57;13.40;;;2.60;1.00;;;;;;5057098;28;20492;-62
2023/04/15 05:07:21;;;;;;;17.07;13.43;;;2.60;1.00;;;;;;5056784;28;20506;-62
2023/04/15 05:09:49;;;;;;;14.03;11.50;;;2.70;1.00;;;;;;5056271;28;20462;-62
2023/04/15 05:12:17;;;;;;;15.53;13.70;;;2.70;1.00;;;;;;5059768;28;20480;-62
2023/04/15 05:14:45;;;;;;;14.53;12.73;;;2.80;1.00;;;;;;5060698;28;20553;-62
2023/04/15 05:17:13;;;;;;;19.53;12.37;;;2.80;1.00;;;;;;5060892;28;20461;-62
2023/04/15 05:19:40;;;;;;;13.73;12.07;;;2.90;1.00;;;;;;5060848;28;20461;-63
2023/04/15 05:22:07;;;;;;;16.43;12.40;;;2.90;1.00;;;;;;5060513;28;20755;-63
2023/04/15 05:24:34;;;;;;;14.50;11.47;;;2.90;1.00;;;;;;5060320;28;20469;-62
2023/04/15 05:27:03;;;;;;;13.83;11.77;;;2.90;1.00;;;;;;5059820;28;20472;-62
2023/04/15 05:29:30;;;;;;;15.07;12.87;;;3.10;1.00;;;;;;5052733;28;20474;-62
2023/04/15 05:31:57;;;;;;;15.37;13.77;;;3.10;1.00;;;;;;5058941;28;20461;-62
2023/04/15 05:34:25;;;;;;;16.90;12.83;;;3.10;1.00;;;;;;5059675;28;20460;-62
2023/04/15 05:36:52;;;;;;;18.07;13.00;;;3.10;1.00;;;;;;5059585;28;20458;-63
2023/04/15 05:39:19;;;;;;;17.20;13.53;;;3.10;1.00;;;;;;5059915;28;20473;-62
2023/04/15 05:41:46;;;;;;;20.00;14.40;;;3.20;1.00;;;;;;5059236;28;20458;-62
2023/04/15 05:44:15;;;;;;;17.30;14.90;;;3.30;1.00;;;;;;5059825;28;20533;-62
2023/04/15 05:46:42;;;;;;;18.87;15.33;;;3.40;1.00;;;;;;5060328;28;20519;-62
2023/04/15 05:49:09;;;;;;;17.43;14.47;;;3.50;1.00;;;;;;5059688;28;20461;-63
2023/04/15 05:51:36;;;;;;;17.47;13.43;;;3.60;1.00;;;;;;5060384;28;20469;-64
2023/04/15 05:54:04;;;;;;;15.67;13.23;;;3.70;1.00;;;;;;5060234;28;20542;-65
2023/04/15 05:56:31;;;;;;;16.50;14.07;;;3.70;1.00;;;;;;5059457;28;20443;-64
2023/04/15 05:58:58;;;;;;;19.23;16.57;;;3.80;1.00;;;;;;5059621;28;20556;-64
2023/04/15 06:01:27;;;;;;;22.63;18.20;;;3.90;1.00;;;;;;5059344;28;20879;-64
2023/04/15 06:03:54;;;;;;;26.17;18.80;;;4.00;1.00;;;;;;5059706;28;20788;-64
2023/04/15 06:06:21;;;;;;;26.07;20.97;;;4.20;1.00;;;;;;5059667;28;20509;-64
2023/04/15 06:08:49;;;;;;;24.20;19.33;;;4.30;1.00;;;;;;5059838;28;20470;-64
2023/04/15 06:11:16;;;;;;;22.73;19.07;;;4.40;1.00;;;;;;5059621;28;20462;-63
2023/04/15 06:13:43;;;;;;;20.13;17.33;;;4.60;1.00;;;;;;5059402;28;20454;-63
2023/04/15 06:16:11;;;;;;;19.97;16.80;;;4.80;1.00;;;;;;5059368;28;20472;-63
2023/04/15 06:18:39;;;;;;;18.30;14.87;;;5.00;1.00;;;;;;5059478;28;20515;-63
2023/04/15 06:21:07;;;;;;;22.73;17.83;;;5.10;1.00;;;;;;5059682;28;20556;-63
2023/04/15 06:23:35;;;;;;;18.37;15.93;;;5.40;1.00;;;;;;5059013;28;20486;-63
2023/04/15 06:26:02;;;;;;;20.20;15.10;;;5.60;1.00;;;;;;5059027;28;20513;-62
2023/04/15 06:28:29;;;;;;;15.93;14.13;;;5.70;1.00;;;;;;5059331;28;20841;-63
2023/04/15 06:30:57;;;;;;;16.80;13.10;;;5.90;1.00;;;;;;5058621;28;20490;-63
2023/04/15 06:33:24;;;;;;;16.50;14.50;;;6.00;1.00;;;;;;5058460;28;20469;-63
2023/04/15 06:35:52;;;;;;;17.77;14.00;;;6.20;1.00;;;;;;5058557;28;20477;-63
2023/04/15 06:38:20;;;;;;;15.83;14.23;;;6.30;1.00;;;;;;5059204;28;20465;-63
2023/04/15 06:40:47;;;;;;;15.80;13.93;;;6.40;1.00;;;;;;5058847;28;20472;-62
2023/04/15 06:43:14;;;;;;;19.00;15.70;;;6.50;1.00;;;;;;5058113;28;20494;-62
2023/04/15 06:45:41;;;;;;;15.63;13.63;;;6.60;1.00;;;;;;5059128;28;20450;-62
2023/04/15 06:48:08;;;;;;;16.63;14.60;;;6.70;1.00;;;;;;5057479;28;20568;-63
2023/04/15 06:50:35;;;;;;;19.03;15.00;;;6.80;1.00;;;;;;5056471;28;20516;-62
2023/04/15 06:53:04;;;;;;;16.87;13.60;;;7.00;1.00;;;;;;5057176;28;20456;-63
2023/04/15 06:55:32;;;;;;;18.80;15.30;;;7.10;1.00;;;;;;5057099;28;20450;-63
2023/04/15 06:57:59;;;;;;;16.57;13.73;;;7.20;1.00;;;;;;5057065;28;20466;-62
2023/04/15 07:00:27;;;;;;;19.03;13.53;;;7.30;1.00;;;;;;5056800;28;20458;-63
2023/04/15 07:02:55;;;;;;;16.83;14.90;;;7.30;1.00;;;;;;5055793;28;20884;-62
2023/04/15 07:05:22;;;;;;;18.50;14.30;;;7.30;1.00;;;;;;5055612;28;20462;-62
2023/04/15 07:07:50;;;;;;;17.87;14.40;;;7.30;1.00;;;;;;5054951;28;20458;-62
2023/04/15 07:10:19;;;;;;;17.80;14.90;;;7.50;1.00;;;;;;5054328;28;21024;-62
2023/04/15 07:12:46;;;;;;;17.87;14.40;;;7.60;1.00;;;;;;5056694;28;20473;-62
2023/04/15 07:15:13;;;;;;;19.47;14.10;;;7.70;1.00;;;;;;5056486;28;20457;-62
2023/04/15 07:17:41;;;;;;;17.67;13.50;;;7.80;1.00;;;;;;5056167;28;20454;-60
2023/04/15 07:20:09;;;;;;;18.10;14.20;;;7.90;1.00;;;;;;5055523;28;20465;-61
2023/04/15 07:22:36;;;;;;;15.63;13.07;;;7.80;1.00;;;;;;5054915;28;20770;-61
2023/04/15 07:25:04;;;;;;;16.37;14.10;;;7.70;1.00;;;;;;5055771;28;20464;-62
2023/04/15 07:27:33;;;;;;;15.33;13.80;;;7.80;1.00;;;;;;5056840;28;20476;-62
2023/04/15 07:30:00;;;;;;;17.30;15.30;;;7.90;1.00;;;;;;5056462;28;20478;-61
2023/04/15 07:32:27;;;;;;;19.30;13.97;;;8.00;1.00;;;;;;5056488;28;20903;-62
2023/04/15 07:34:55;;;;;;;17.07;15.30;;;8.10;1.00;;;;;;5055707;28;20465;-59
2023/04/15 07:37:22;;;;;;;15.23;13.67;;;8.20;1.00;;;;;;5058245;28;20899;-61
2023/04/15 07:39:49;;;;;;;18.10;14.93;;;8.30;99.90;;;;;;5057290;28;20462;-61
2023/04/15 07:42:16;;;;;;;15.70;13.30;;;8.40;99.90;;;;;;5056837;28;20462;-61
2023/04/15 07:44:45;;;;;;;16.20;14.60;;;8.60;99.90;;;;;;5057562;28;20490;-60
2023/04/15 07:47:12;;;;;;;14.23;12.83;;;8.80;99.90;;;;;;5056671;28;20570;-61
2023/04/15 07:49:39;;;;;;;14.83;13.30;;;9.00;99.90;;;;;;5056334;28;20511;-60
2023/04/15 07:52:06;;;;;;;15.20;13.60;;;9.20;99.90;;;;;;5057725;28;20816;-60
2023/04/15 07:54:33;;;;;;;16.70;13.70;;;9.30;99.90;;;;;;5057747;28;20458;-61
2023/04/15 07:57:00;;;;;;;14.03;12.53;;;9.50;99.90;;;;;;5057518;28;20466;-62
2023/04/15 07:59:28;;;;;;;14.60;12.17;;;9.50;99.90;;;;;;5057175;28;20548;-62
2023/04/15 08:01:57;;;;;;;18.43;12.63;;;9.70;99.90;;;;;;5056977;28;20466;-61
2023/04/15 08:04:24;;;;;;;15.03;12.70;;;9.90;99.90;;;;;;5057248;28;20958;-62
2023/04/15 08:06:51;;;;;;;13.27;11.87;;;10.20;99.90;;;;;;5055883;28;20458;-62
2023/04/15 08:09:18;;;;;;;13.43;11.83;;;10.40;99.90;;;;;;5057482;28;20462;-62
2023/04/15 08:11:46;;;;;;;13.73;10.73;;;10.50;99.90;;;;;;5056833;28;20954;-61
2023/04/15 08:14:13;;;;;;;12.00;10.70;;;10.70;99.90;;;;;;5056668;28;20888;-61
2023/04/15 08:16:40;;;;;;;11.83;10.03;;;10.80;99.90;;;;;;5036563;28;20466;-61
2023/04/15 08:19:09;;;;;;;12.60;10.67;;;10.80;99.90;;;;;;5037488;28;20459;-61
2023/04/15 08:21:36;;;;;;;10.07;8.90;;;11.10;99.90;;;;;;5046877;28;20450;-62
2023/04/15 08:24:04;;;;;;;12.80;10.47;;;11.00;99.90;;;;;;5057283;28;20589;-61
2023/04/15 08:26:31;;;;;;;11.10;9.10;;;11.00;99.90;;;;;;5057006;28;20458;-62
2023/04/15 08:28:58;;;;;;;9.10;8.20;;;11.10;99.90;;;;;;5056630;28;20464;-62
2023/04/15 08:31:29;;;;;;;9.67;8.17;;;10.90;99.90;;;;;;5054983;28;20490;-61
2023/04/15 08:33:58;;;;;;;9.63;8.43;;;10.60;99.90;;;;;;5055767;28;20450;-61
2023/04/15 08:36:27;;;;;;;8.90;8.07;;;10.90;99.90;;;;;;5054963;28;20520;-61
2023/04/15 08:38:54;;;;;;;10.73;8.27;;;11.00;99.90;;;;;;5057161;28;20891;-61
2023/04/15 08:41:23;;;;;;;7.97;7.17;;;11.50;99.90;;;;;;5057327;28;20466;-61
2023/04/15 08:43:54;;;;;;;10.87;8.03;;;11.70;99.90;;;;;;5055946;28;20468;-62
2023/04/15 08:46:22;;;;;;;10.70;9.60;;;11.60;99.90;;;;;;5060229;28;20469;-61
2023/04/15 08:48:51;;;;;;;8.87;8.07;;;11.80;99.90;;;;;;5060383;28;20473;-62
2023/04/15 08:51:18;;;;;;;7.93;7.13;;;12.00;99.90;;;;;;5060760;28;20477;-58
2023/04/15 08:53:47;;;;;;;8.80;7.90;;;12.00;99.90;;;;;;5060444;28;20876;-60
2023/04/15 08:56:15;;;;;;;7.97;7.27;;;12.30;99.90;;;;;;5060636;28;20469;-59
2023/04/15 08:58:44;;;;;;;9.77;7.70;;;12.50;99.90;;;;;;5060688;28;20466;-62
2023/04/15 09:01:12;;;;;;;9.17;8.27;;;12.70;99.90;;;;;;5060840;28;20512;-60
2023/04/15 09:03:40;;;;;;;8.40;7.60;;;12.60;99.90;;;;;;5060343;28;20490;-64
2023/04/15 09:06:08;;;;;;;9.50;8.10;;;12.10;99.90;;;;;;5060595;28;20907;-63
2023/04/15 09:08:35;;;;;;;8.43;7.63;;;11.30;99.90;;;;;;5059195;28;20470;-61
2023/04/15 09:11:04;;;;;;;9.23;8.33;;;10.90;99.90;;;;;;5059151;28;20750;-62
2023/04/15 09:13:31;;;;;;;10.70;9.80;;;10.90;99.90;;;;;;5060250;28;20512;-62
2023/04/15 09:15:59;;;;;;;9.30;8.33;;;11.30;99.90;;;;;;5058022;28;20903;-62
2023/04/15 09:18:30;;;;;;;9.10;8.30;;;10.70;99.90;;;;;;5059384;28;20466;-61
2023/04/15 09:21:05;;;;;;;10.70;9.20;;;10.70;99.90;;;;;;5059778;28;20549;-62
2023/04/15 09:23:33;;;;;;;10.57;9.40;;;10.70;99.90;;;;;;5060541;28;20485;-63
2023/04/15 09:26:01;;;;;;;7.90;7.20;;;10.60;99.90;;;;;;5059975;28;20888;-63
2023/04/15 09:28:30;;;;;;;8.37;7.57;;;10.50;99.90;;;;;;5059455;28;20552;-62
2023/04/15 09:30:57;;;;;;;7.53;6.83;;;10.80;99.90;;;;;;5058658;28;20486;-62
2023/04/15 09:33:26;;;;;;;8.17;7.27;;;10.80;99.90;;;;;;5057836;28;20485;-63
2023/04/15 09:36:01;;;;;;;8.13;7.40;;;11.10;99.90;;;;;;5057757;28;20972;-60
2023/04/15 09:38:28;;;;;;;5.90;5.40;;;11.30;99.90;;;;;;5058055;28;20436;-62
2023/04/15 09:40:56;;;;;;;6.90;6.20;;;11.20;99.90;;;;;;5058083;28;20468;-62
2023/04/15 09:43:24;;;;;;;7.00;6.40;;;10.30;99.90;;;;;;5058262;28;20466;-62
2023/04/15 09:45:54;;;;;;;7.60;6.90;;;10.40;99.90;;;;;;5058378;28;20490;-62
2023/04/15 09:48:22;;;;;;;7.80;7.07;;;10.60;99.90;;;;;;5057840;28;20516;-61
2023/04/15 09:50:52;;;;;;;8.50;7.60;;;10.60;99.90;;;;;;5059298;28;20462;-62
2023/04/15 09:53:20;;;;;;;8.37;7.57;;;10.70;99.90;;;;;;5059565;28;20441;-62
2023/04/15 09:55:51;;;;;;;8.00;7.03;;;10.70;99.90;;;;;;5059490;28;20933;-62
2023/04/15 09:58:19;;;;;;;8.80;7.90;;;10.70;99.90;;;;;;5058842;28;20466;-61
2023/04/15 10:00:47;;;;;;;8.00;6.33;;;10.70;99.90;;;;;;5059606;28;20462;-61
2023/04/15 10:03:20;;;;;;;6.63;5.93;;;10.60;99.90;;;;;;5059596;28;20802;-61
2023/04/15 10:05:49;;;;;;;6.97;6.37;;;10.40;99.90;;;;;;5059589;28;20937;-62
2023/04/15 10:08:18;;;;;;;7.37;6.67;;;10.30;99.90;;;;;;5059539;28;20879;-61
2023/04/15 10:10:46;;;;;;;7.30;6.60;;;10.30;99.90;;;;;;5059482;28;20790;-61
2023/04/15 10:13:15;;;;;;;7.17;6.47;;;10.00;99.90;;;;;;5057797;28;20441;-59
2023/04/15 10:15:46;;;;;;;7.43;6.63;;;9.80;99.90;;;;;;5058531;28;20521;-61
2023/04/15 10:18:19;;;;;;;8.23;7.43;;;9.80;99.90;;;;;;5057806;28;20470;-61
2023/04/15 10:20:48;;;;;;;8.00;7.20;;;9.80;99.90;;;;;;5059344;28;20469;-61
2023/04/15 10:23:15;;;;;;;8.73;7.90;;;9.90;99.90;;;;;;5058704;28;20737;-61
2023/04/15 10:25:43;;;;;;;7.53;6.77;;;9.90;99.90;;;;;;5058271;28;20497;-61
2023/04/15 10:28:11;;;;;;;10.53;7.47;;;10.10;99.90;;;;;;5058151;28;20970;-61
2023/04/15 10:30:38;;;;;;;7.83;6.97;;;9.90;99.90;;;;;;5057602;28;20497;-61
2023/04/15 10:33:08;;;;;;;9.03;7.73;;;10.00;99.90;;;;;;5058616;28;20556;-61
2023/04/15 10:35:37;;;;;;;8.93;8.07;;;9.70;99.90;;;;;;5057887;28;21062;-62
2023/04/15 10:38:37;;;;;;;9.10;8.30;;;9.70;99.90;;;;;;5055178;28;20459;-62
2023/04/15 10:41:18;;;;;;;9.00;8.10;;;9.70;99.90;;;;;;5036986;28;20558;-62
2023/04/15 10:43:50;;;;;;;9.90;8.87;;;9.80;99.90;;;;;;5036524;28;20467;-63
2023/04/15 10:46:20;;;;;;;9.63;8.73;;;10.00;99.90;;;;;;5039026;28;20471;-61
2023/04/15 10:48:49;;;;;;;8.90;8.00;;;9.80;99.90;;;;;;5043096;28;20474;-61
2023/04/15 10:51:26;;;;;;;9.57;8.67;;;9.80;99.90;;;;;;5055412;28;20504;-62
2023/04/15 10:53:57;;;;;;;10.07;9.07;;;9.70;99.90;;;;;;5057955;28;20504;-62
2023/04/15 10:56:25;;;;;;;10.47;9.53;;;10.10;99.90;;;;;;5057819;28;20462;-62
2023/04/15 10:58:52;;;;;;;10.80;8.47;;;10.30;99.90;;;;;;5057131;28;20974;-62
2023/04/15 11:01:22;;;;;;;10.17;9.17;;;10.10;99.90;;;;;;5057868;28;20485;-62
2023/04/15 11:03:50;;;;;;;10.90;9.90;;;10.10;99.90;;;;;;5057512;28;20494;-62
2023/04/15 11:06:19;;;;;;;11.10;10.10;;;10.20;99.90;;;;;;5057528;28;20473;-62
2023/04/15 11:08:58;;;;;;;10.33;9.10;;;9.90;99.90;;;;;;5057329;28;20535;-62
2023/04/15 11:12:07;;;;;;;9.63;8.73;;;10.00;99.90;;;;;;5058537;28;20739;-62
2023/04/15 11:14:35;;;;;;;9.63;8.47;;;10.40;99.90;;;;;;5054485;28;20501;-62
2023/04/15 11:17:02;;;;;;;9.20;8.30;;;10.50;99.90;;;;;;5056186;28;20770;-62
2023/04/15 11:19:37;;;;;;;9.80;8.80;;;10.40;99.90;;;;;;5056322;28;20485;-61
2023/04/15 11:22:10;;;;;;;9.63;8.73;;;10.20;99.90;;;;;;5056040;28;20468;-61
2023/04/15 11:24:46;;;;;;;10.87;9.77;;;10.20;99.90;;;;;;5057316;28;20494;-62
2023/04/15 11:27:22;;;;;;;9.10;8.20;;;10.10;99.90;;;;;;5058001;28;20465;-61
2023/04/15 11:29:57;;;;;;;11.43;8.37;;;10.10;99.90;;;;;;5170414;27;20316;-62
2023/04/15 11:32:24;;;;;;;7.70;6.90;;;10.00;99.90;;;;;;5145108;27;20451;-62
2023/04/15 11:34:52;;;;;;;7.27;6.57;;;9.80;99.90;;;;;;5143641;27;20540;-62
2023/04/15 11:37:28;;;;;;;7.60;6.90;;;9.90;99.90;;;;;;5145981;27;20489;-62
2023/04/15 11:39:56;;;;;;;8.70;7.90;;;9.70;99.90;;;;;;5146163;27;20815;-62
2023/04/15 11:42:23;;;;;;;7.97;7.20;;;9.60;99.90;;;;;;5145448;27;20449;-62
2023/04/15 11:44:50;;;;;;;8.67;7.67;;;9.90;99.90;;;;;;5144637;27;20766;-62
2023/04/15 11:47:25;;;;;;;9.70;8.77;;;9.90;99.90;;;;;;5147120;27;20446;-62
2023/04/15 11:49:52;;;;;;;7.73;7.03;;;9.80;99.90;;;;;;5148854;27;20572;-62
2023/04/15 11:52:19;;;;;;;8.13;7.33;;;9.80;99.90;;;;;;5148694;27;20834;-63
2023/04/15 11:54:47;;;;;;;8.23;7.43;;;9.60;99.90;;;;;;5149921;27;20454;-62
2023/04/15 11:57:14;;;;;;;8.30;7.50;;;9.40;99.90;;;;;;5149735;27;20764;-62
2023/04/15 11:59:45;;;;;;;8.40;7.33;;;9.40;99.90;;;;;;5145248;27;20944;-62
2023/04/15 12:02:12;;;;;;;7.63;6.57;;;9.30;99.90;;;;;;5156003;27;20462;-63
2023/04/15 12:04:41;;;;;;;8.17;7.37;;;9.30;99.90;;;;;;5155746;27;20463;-63
2023/04/15 12:07:08;;;;;;;10.47;8.00;;;9.20;99.90;;;;;;5149417;27;20478;-62
2023/04/15 12:09:38;;;;;;;9.80;8.50;;;9.30;99.90;;;;;;5133939;28;20494;-62
2023/04/15 12:12:05;;;;;;;9.50;8.27;;;9.40;99.90;;;;;;5140285;27;20752;-62
2023/04/15 12:14:33;;;;;;;8.90;7.00;;;9.30;99.90;;;;;;5153125;27;20474;-61
2023/04/15 12:17:03;;;;;;;9.37;8.47;;;9.40;99.90;;;;;;5152408;27;20506;-63
2023/04/15 12:19:32;;;;;;;9.27;7.30;;;9.50;99.90;;;;;;5148415;27;20479;-62
2023/04/15 12:22:03;;;;;;;8.40;7.40;;;9.50;99.90;;;;;;5143389;27;20803;-62
2023/04/15 12:24:32;;;;;;;8.20;6.70;;;9.40;99.90;;;;;;5143949;27;20466;-62
2023/04/15 12:27:03;;;;;;;8.50;7.60;;;9.30;99.90;;;;;;5143088;27;20467;-63
2023/04/15 12:29:31;;;;;;;9.43;8.43;;;9.30;99.90;;;;;;5144615;27;20512;-62
2023/04/15 12:32:03;;;;;;;8.77;7.90;;;9.30;99.90;;;;;;5155292;27;20458;-62
2023/04/15 12:34:32;;;;;;;11.33;7.63;;;9.30;99.90;;;;;;5154464;27;20468;-63
2023/04/15 12:37:02;;;;;;;9.33;8.13;;;9.40;99.90;;;;;;5144427;27;20470;-62
2023/04/15 12:39:31;;;;;;;8.80;7.90;;;9.30;99.90;;;;;;5148685;27;20549;-61
2023/04/15 12:41:59;;;;;;;9.93;8.67;;;9.30;99.90;;;;;;5138475;27;20898;-62
2023/04/15 12:44:26;;;;;;;11.03;9.90;;;9.30;99.90;;;;;;5139306;27;20467;-62
2023/04/15 12:46:54;;;;;;;10.63;9.50;;;9.10;99.90;;;;;;5139031;27;20777;-62
2023/04/15 12:49:21;;;;;;;11.47;10.33;;;9.10;1.00;;;;;;5139693;27;20514;-62
2023/04/15 12:51:49;;;;;;;11.67;8.90;;;8.90;1.00;;;;;;5139676;27;20488;-62
2023/04/15 12:54:19;;;;;;;12.80;11.60;;;9.00;1.00;;;;;;5139016;27;20458;-62